Time;durP1;ratioP1;P1;durP2;ratioP2;P2;SDS_P1;SDS_P2;PMS_P1;PMS_P2;Temp;Humidity;BMP_temperature;BMP_pressure;BME280_temperature;BME280_humidity;BME280_pressure;Samples;Min_cycle;Max_cycle;Signal;HPM_P1;HPM_P2
2022/01/31 00:01:04;;;;;;;35.50;6.38;;;3.90;99.90;;;;;;5035651;28;20128;-73
2022/01/31 00:03:30;;;;;;;24.75;5.68;;;3.90;99.90;;;;;;5055712;28;20550;-73
2022/01/31 00:05:56;;;;;;;28.20;5.78;;;3.90;99.90;;;;;;5072250;28;20130;-72
2022/01/31 00:08:24;;;;;;;26.38;5.78;;;3.90;99.90;;;;;;5055289;28;20036;-73
2022/01/31 00:10:51;;;;;;;29.67;6.72;;;3.90;99.90;;;;;;5054279;28;20036;-73
2022/01/31 00:13:24;;;;;;;26.58;5.57;;;3.90;99.90;;;;;;5055348;28;20055;-73
2022/01/31 00:15:54;;;;;;;17.85;5.63;;;4.00;99.90;;;;;;5055141;28;20037;-73
2022/01/31 00:18:21;;;;;;;22.23;6.13;;;4.00;99.90;;;;;;5055200;28;20475;-74
2022/01/31 00:20:46;;;;;;;23.10;5.80;;;4.00;99.90;;;;;;5054940;28;20482;-74
2022/01/31 00:23:12;;;;;;;24.23;6.55;;;4.00;99.90;;;;;;5070749;28;20074;-72
2022/01/31 00:25:38;;;;;;;23.38;5.80;;;4.00;99.90;;;;;;5071450;28;20543;-75
2022/01/31 00:28:04;;;;;;;20.85;5.88;;;4.10;99.90;;;;;;5055403;28;20087;-72
2022/01/31 00:30:29;;;;;;;27.10;6.20;;;4.00;99.90;;;;;;5071624;28;20119;-74
2022/01/31 00:32:55;;;;;;;26.70;6.50;;;4.00;99.90;;;;;;5071910;28;20036;-73
2022/01/31 00:35:21;;;;;;;22.63;5.97;;;4.00;99.90;;;;;;5053192;28;20051;-75
2022/01/31 00:37:47;;;;;;;23.48;7.00;;;4.10;99.90;;;;;;5051595;28;20131;-73
2022/01/31 00:40:13;;;;;;;21.27;6.43;;;4.10;99.90;;;;;;5034419;28;20128;-72
2022/01/31 00:42:39;;;;;;;25.48;6.45;;;4.10;99.90;;;;;;5085737;28;20037;-74
2022/01/31 00:45:13;;;;;;;29.75;7.40;;;4.10;99.90;;;;;;5051872;28;20045;-73
2022/01/31 00:47:43;;;;;;;21.63;6.95;;;4.10;99.90;;;;;;5051809;28;20041;-73
2022/01/31 00:50:11;;;;;;;20.33;6.90;;;4.20;99.90;;;;;;5034927;28;20127;-75
2022/01/31 00:52:39;;;;;;;24.35;7.60;;;4.10;99.90;;;;;;5051344;28;20388;-74
2022/01/31 00:55:07;;;;;;;24.30;7.30;;;4.20;99.90;;;;;;5051935;28;20057;-73
2022/01/31 00:57:33;;;;;;;25.58;7.03;;;4.20;99.90;;;;;;5051801;28;20099;-73
2022/01/31 00:59:58;;;;;;;22.48;7.15;;;4.20;99.90;;;;;;5034982;28;20045;-75
2022/01/31 01:02:26;;;;;;;23.88;7.32;;;4.20;99.90;;;;;;5035018;28;20092;-74
2022/01/31 01:04:52;;;;;;;20.60;6.97;;;4.30;99.90;;;;;;5064918;28;20039;-73
2022/01/31 01:07:19;;;;;;;24.20;6.88;;;4.20;99.90;;;;;;5055427;28;20037;-73
2022/01/31 01:09:46;;;;;;;26.42;6.95;;;4.20;99.90;;;;;;5054828;28;20086;-75
2022/01/31 01:12:13;;;;;;;21.50;7.43;;;4.20;99.90;;;;;;5053891;28;20044;-74
2022/01/31 01:14:39;;;;;;;20.92;7.28;;;4.20;99.90;;;;;;5071228;28;20049;-75
2022/01/31 01:17:05;;;;;;;24.25;7.78;;;4.20;99.90;;;;;;5054886;28;20040;-73
2022/01/31 01:19:31;;;;;;;24.38;7.90;;;4.20;99.90;;;;;;5071063;28;20067;-73
2022/01/31 01:21:57;;;;;;;23.80;8.35;;;4.20;99.90;;;;;;5071381;28;20506;-73
2022/01/31 01:24:22;;;;;;;22.27;7.05;;;4.20;99.90;;;;;;5054647;28;20056;-75
2022/01/31 01:26:49;;;;;;;27.92;7.95;;;4.20;99.90;;;;;;5058138;28;20040;-73
2022/01/31 01:29:16;;;;;;;18.77;7.78;;;4.20;99.90;;;;;;5058325;28;20051;-74
2022/01/31 01:31:44;;;;;;;22.33;8.02;;;4.20;99.90;;;;;;5072101;28;20101;-72
2022/01/31 01:34:10;;;;;;;28.83;8.60;;;4.20;99.90;;;;;;5066039;28;20537;-73
2022/01/31 01:36:35;;;;;;;25.73;9.18;;;4.20;99.90;;;;;;5038367;28;20494;-72
2022/01/31 01:39:01;;;;;;;20.88;8.65;;;4.20;99.90;;;;;;5038582;28;20133;-73
2022/01/31 01:41:28;;;;;;;28.90;10.13;;;4.10;99.90;;;;;;5053717;28;20041;-74
2022/01/31 01:43:54;;;;;;;25.88;9.88;;;4.10;99.90;;;;;;5038384;28;20127;-73
2022/01/31 01:46:19;;;;;;;30.25;10.25;;;4.00;99.90;;;;;;5054733;28;20128;-72
2022/01/31 01:48:45;;;;;;;25.60;10.48;;;4.00;99.90;;;;;;5054491;28;20033;-74
2022/01/31 01:51:12;;;;;;;34.50;11.85;;;3.90;99.90;;;;;;5054669;28;20124;-73
2022/01/31 01:53:37;;;;;;;31.77;12.75;;;3.90;99.90;;;;;;5037968;28;20051;-73
2022/01/31 01:56:03;;;;;;;32.85;12.73;;;3.80;99.90;;;;;;5054758;28;20044;-74
2022/01/31 01:58:37;;;;;;;26.13;13.90;;;3.80;99.90;;;;;;5054433;28;20045;-72
2022/01/31 02:01:04;;;;;;;27.98;13.60;;;3.70;99.90;;;;;;5037828;28;20132;-74
2022/01/31 02:03:32;;;;;;;28.27;13.65;;;3.60;99.90;;;;;;5056458;28;20053;-74
2022/01/31 02:05:58;;;;;;;31.73;13.55;;;3.60;99.90;;;;;;5074374;28;20055;-74
2022/01/31 02:08:26;;;;;;;25.92;13.52;;;3.50;99.90;;;;;;5073796;28;20115;-73
2022/01/31 02:10:51;;;;;;;29.30;13.90;;;3.50;99.90;;;;;;5072817;28;20112;-73
2022/01/31 02:13:17;;;;;;;23.75;12.80;;;3.40;99.90;;;;;;5073729;28;20449;-73
2022/01/31 02:15:45;;;;;;;29.63;14.35;;;3.40;99.90;;;;;;5057411;28;20047;-73
2022/01/31 02:18:11;;;;;;;31.70;13.85;;;3.40;99.90;;;;;;5074576;28;20052;-72
2022/01/31 02:20:42;;;;;;;30.45;14.18;;;3.40;99.90;;;;;;5057440;28;20044;-73
2022/01/31 02:23:09;;;;;;;28.60;14.05;;;3.40;99.90;;;;;;5057487;28;20048;-73
2022/01/31 02:26:03;;;;;;;30.75;15.52;;;3.40;99.90;;;;;;5057316;28;20044;-74
2022/01/31 02:28:31;;;;;;;32.33;14.27;;;3.40;99.90;;;;;;5057070;28;20053;-73
2022/01/31 02:30:57;;;;;;;33.67;14.10;;;3.40;99.90;;;;;;5057773;28;20123;-74
2022/01/31 02:33:24;;;;;;;32.38;14.63;;;3.40;99.90;;;;;;5069526;28;20887;-74
2022/01/31 02:35:53;;;;;;;32.05;15.02;;;3.40;99.90;;;;;;5054557;28;20517;-71
2022/01/31 02:38:19;;;;;;;26.50;14.13;;;3.40;99.90;;;;;;5036382;28;20077;-73
2022/01/31 02:40:45;;;;;;;32.05;15.13;;;3.40;99.90;;;;;;5036042;28;20396;-72
2022/01/31 02:43:12;;;;;;;30.30;15.18;;;3.40;99.90;;;;;;5053691;28;20044;-73
2022/01/31 02:45:38;;;;;;;29.05;14.68;;;3.40;99.90;;;;;;5053587;28;20076;-73
2022/01/31 02:48:05;;;;;;;29.85;14.27;;;3.40;99.90;;;;;;5054217;28;20048;-72
2022/01/31 02:50:30;;;;;;;28.27;14.18;;;3.40;99.90;;;;;;5053186;28;20365;-73
2022/01/31 02:53:10;;;;;;;30.98;14.35;;;3.40;99.90;;;;;;5053710;28;20566;-74
2022/01/31 02:55:37;;;;;;;;;;;3.40;99.90;;;;;;5036793;28;20048;-72
2022/01/31 02:58:03;;;;;;;23.08;12.75;;;3.40;99.90;;;;;;5053590;28;20012;-74
2022/01/31 03:00:28;;;;;;;21.65;13.30;;;3.30;99.90;;;;;;5036782;28;20124;-73
2022/01/31 03:02:54;;;;;;;24.05;11.20;;;3.40;99.90;;;;;;5052972;28;20048;-72
2022/01/31 03:05:19;;;;;;;19.73;12.18;;;3.30;99.90;;;;;;5072640;28;20033;-71
2022/01/31 03:07:45;;;;;;;16.05;10.20;;;3.30;99.90;;;;;;5073187;28;20048;-72
2022/01/31 03:10:11;;;;;;;11.77;9.57;;;3.30;99.90;;;;;;5072327;28;20036;-71
2022/01/31 03:12:36;;;;;;;17.15;10.35;;;3.20;99.90;;;;;;5072805;28;20044;-73
2022/01/31 03:15:03;;;;;;;15.23;10.30;;;3.20;99.90;;;;;;5073259;28;20041;-73
2022/01/31 03:17:29;;;;;;;15.15;11.13;;;3.20;99.90;;;;;;5072931;28;20037;-72
2022/01/31 03:19:55;;;;;;;13.85;10.25;;;3.20;99.90;;;;;;5073263;28;20367;-72
2022/01/31 03:22:22;;;;;;;16.25;10.13;;;3.20;99.90;;;;;;5056036;28;20051;-74
2022/01/31 03:24:48;;;;;;;16.27;9.95;;;3.20;99.90;;;;;;5072973;28;20047;-72
2022/01/31 03:27:15;;;;;;;15.38;11.38;;;3.10;99.90;;;;;;5056354;28;20044;-73
2022/01/31 03:29:40;;;;;;;18.77;11.98;;;3.10;99.90;;;;;;5072940;28;20131;-72
2022/01/31 03:32:07;;;;;;;17.25;11.07;;;3.20;99.90;;;;;;5072957;28;20123;-72
2022/01/31 03:34:32;;;;;;;18.60;11.52;;;3.20;99.90;;;;;;5057165;28;20041;-73
2022/01/31 03:36:58;;;;;;;18.30;12.77;;;3.20;99.90;;;;;;5054020;28;20462;-72
2022/01/31 03:39:24;;;;;;;21.17;12.68;;;3.20;99.90;;;;;;5073053;28;20047;-72
2022/01/31 03:41:49;;;;;;;20.25;11.70;;;3.30;99.90;;;;;;5071698;28;20036;-73
2022/01/31 03:44:15;;;;;;;22.15;12.63;;;3.30;99.90;;;;;;5072793;28;20090;-72
2022/01/31 03:46:41;;;;;;;17.98;11.57;;;3.40;99.90;;;;;;5072634;28;20028;-72
2022/01/31 03:49:06;;;;;;;17.90;10.93;;;3.50;99.90;;;;;;5072571;28;20098;-71
2022/01/31 03:51:32;;;;;;;19.65;11.52;;;3.60;99.90;;;;;;5072073;28;20067;-73
2022/01/31 03:53:58;;;;;;;21.58;11.18;;;3.60;99.90;;;;;;5072142;28;20363;-73
2022/01/31 03:56:23;;;;;;;23.58;12.02;;;3.70;99.90;;;;;;5072990;28;20386;-72
2022/01/31 03:58:49;;;;;;;19.40;10.90;;;3.80;99.90;;;;;;5065185;28;20045;-73
2022/01/31 04:01:15;;;;;;;20.85;11.10;;;3.90;99.90;;;;;;5036754;28;20044;-72
2022/01/31 04:03:41;;;;;;;20.15;11.55;;;4.00;99.90;;;;;;5052218;28;20088;-73
2022/01/31 04:06:06;;;;;;;25.27;11.52;;;4.10;99.90;;;;;;5052161;28;20087;-71
2022/01/31 04:08:32;;;;;;;27.75;12.05;;;4.10;99.90;;;;;;5035256;28;20037;-73
2022/01/31 04:10:57;;;;;;;26.55;12.13;;;4.30;99.90;;;;;;5034327;28;20124;-71
2022/01/31 04:13:26;;;;;;;22.05;10.98;;;4.20;99.90;;;;;;5035476;28;20063;-72
2022/01/31 04:15:52;;;;;;;22.40;10.32;;;4.30;99.90;;;;;;5056331;28;20039;-72
2022/01/31 04:18:17;;;;;;;21.30;10.20;;;4.40;99.90;;;;;;5071968;28;20082;-71
2022/01/31 04:20:43;;;;;;;23.13;9.68;;;4.40;99.90;;;;;;5072167;28;20076;-72
2022/01/31 04:23:17;;;;;;;22.52;7.68;;;4.50;99.90;;;;;;5071562;28;20044;-71
2022/01/31 04:25:53;;;;;;;25.38;6.50;;;4.60;99.90;;;;;;5072459;28;20040;-73
2022/01/31 04:31:13;;;;;;;23.95;5.10;;;4.80;99.90;;;;;;5071010;28;20479;-72
2022/01/31 04:33:39;;;;;;;25.95;4.55;;;4.90;99.90;;;;;;5071637;28;20048;-72
2022/01/31 04:36:06;;;;;;;25.75;4.45;;;4.90;99.90;;;;;;5071787;28;20048;-73
2022/01/31 04:38:33;;;;;;;22.60;4.30;;;5.10;99.90;;;;;;5071840;28;20036;-72
2022/01/31 04:40:59;;;;;;;19.10;4.55;;;5.10;99.90;;;;;;5054144;28;20036;-73
2022/01/31 04:43:25;;;;;;;22.42;3.60;;;5.30;99.90;;;;;;5071746;28;20047;-72
2022/01/31 04:45:51;;;;;;;18.95;3.33;;;5.30;99.90;;;;;;5071830;28;20040;-72
2022/01/31 04:48:19;;;;;;;25.35;3.58;;;5.40;99.90;;;;;;5071381;28;20087;-73
2022/01/31 04:50:46;;;;;;;29.30;3.95;;;5.40;99.90;;;;;;5055052;28;20440;-72
2022/01/31 04:53:13;;;;;;;28.13;3.90;;;5.50;99.90;;;;;;5071603;28;20094;-71
2022/01/31 04:55:40;;;;;;;28.08;4.03;;;5.50;99.90;;;;;;5071697;28;20041;-72
2022/01/31 04:58:06;;;;;;;22.25;3.60;;;5.50;99.90;;;;;;5068604;28;20479;-71
2022/01/31 05:00:33;;;;;;;20.23;3.05;;;5.50;99.90;;;;;;5052090;28;20099;-74
2022/01/31 05:02:58;;;;;;;16.92;2.78;;;5.50;99.90;;;;;;5055391;28;20558;-74
2022/01/31 05:05:24;;;;;;;23.42;3.30;;;5.40;99.90;;;;;;5055800;28;20135;-72
2022/01/31 05:07:53;;;;;;;17.85;3.55;;;5.40;99.90;;;;;;5039095;28;20041;-74
2022/01/31 05:10:19;;;;;;;24.08;3.25;;;5.50;99.90;;;;;;5054241;28;20095;-73
2022/01/31 05:12:45;;;;;;;23.75;3.38;;;5.50;99.90;;;;;;5055463;28;20431;-73
2022/01/31 05:15:10;;;;;;;22.42;3.15;;;5.40;99.90;;;;;;5055099;28;20041;-72
2022/01/31 05:17:36;;;;;;;26.50;3.88;;;5.40;99.90;;;;;;5055361;28;20135;-71
2022/01/31 05:20:03;;;;;;;23.85;3.38;;;5.50;99.90;;;;;;5055456;28;20045;-71
2022/01/31 05:22:29;;;;;;;22.80;3.38;;;5.50;99.90;;;;;;5055107;28;20475;-73
2022/01/31 05:24:54;;;;;;;20.85;3.53;;;5.50;99.90;;;;;;5055170;28;20029;-73
2022/01/31 05:27:21;;;;;;;24.85;3.75;;;5.50;99.90;;;;;;5055101;28;20037;-72
2022/01/31 05:29:47;;;;;;;19.55;3.05;;;5.40;99.90;;;;;;5054804;28;20043;-73
2022/01/31 05:32:12;;;;;;;23.80;3.55;;;5.40;99.90;;;;;;5055973;28;20053;-72
2022/01/31 05:34:38;;;;;;;19.90;2.67;;;5.40;99.90;;;;;;5055598;28;20064;-72
2022/01/31 05:37:04;;;;;;;23.08;3.17;;;5.40;99.90;;;;;;5055186;28;20045;-72
2022/01/31 05:39:30;;;;;;;24.98;4.22;;;5.40;99.90;;;;;;5054958;28;20041;-74
2022/01/31 05:41:56;;;;;;;22.88;3.40;;;5.40;99.90;;;;;;5053884;28;20103;-72
2022/01/31 05:44:23;;;;;;;18.38;3.45;;;5.40;99.90;;;;;;5054678;28;20349;-72
2022/01/31 05:46:49;;;;;;;14.98;2.50;;;5.40;99.90;;;;;;5038473;28;20484;-73
2022/01/31 05:49:14;;;;;;;8.77;1.33;;;5.30;99.90;;;;;;5054642;28;20487;-72
2022/01/31 05:52:07;;;;;;;9.98;1.50;;;5.20;99.90;;;;;;5054291;28;20037;-72
2022/01/31 05:54:38;;;;;;;8.52;1.80;;;5.10;99.90;;;;;;5054930;28;20393;-73
2022/01/31 05:57:05;;;;;;;7.32;1.08;;;5.00;99.90;;;;;;5054336;28;20430;-72
2022/01/31 05:59:31;;;;;;;8.57;1.08;;;4.90;99.90;;;;;;5067692;28;20045;-72
2022/01/31 06:01:58;;;;;;;5.55;1.05;;;4.80;99.90;;;;;;5074677;28;20044;-72
2022/01/31 06:04:24;;;;;;;4.38;0.90;;;4.80;99.90;;;;;;5074031;28;20391;-71
2022/01/31 06:06:50;;;;;;;5.75;1.38;;;4.70;99.90;;;;;;5074723;28;20110;-72
2022/01/31 06:09:16;;;;;;;5.90;1.08;;;4.70;99.90;;;;;;5074227;28;20413;-73
2022/01/31 06:11:42;;;;;;;10.27;1.23;;;4.70;99.90;;;;;;5071760;28;20044;-72
2022/01/31 06:14:09;;;;;;;9.13;1.63;;;4.60;99.90;;;;;;5074422;28;20558;-72
2022/01/31 06:16:35;;;;;;;8.57;1.27;;;4.60;99.90;;;;;;5074203;28;20036;-72
2022/01/31 06:19:01;;;;;;;10.13;1.42;;;4.60;99.90;;;;;;5074307;28;20033;-72
2022/01/31 06:21:26;;;;;;;11.25;1.10;;;4.60;99.90;;;;;;5073996;28;20132;-71
2022/01/31 06:23:52;;;;;;;8.80;1.65;;;4.60;99.90;;;;;;5057380;28;20068;-71
2022/01/31 06:26:20;;;;;;;8.98;1.52;;;4.60;99.90;;;;;;5073783;28;20045;-72
2022/01/31 06:28:46;;;;;;;11.15;2.03;;;4.60;99.90;;;;;;5070735;28;20517;-72
2022/01/31 06:31:12;;;;;;;13.98;1.70;;;4.60;99.90;;;;;;5074404;28;20044;-72
2022/01/31 06:33:37;;;;;;;9.30;1.85;;;4.60;99.90;;;;;;5074210;28;20097;-72
2022/01/31 06:36:03;;;;;;;11.88;1.50;;;4.70;99.90;;;;;;5073939;28;20111;-71
2022/01/31 06:38:29;;;;;;;11.88;1.60;;;4.60;99.90;;;;;;5073580;28;20101;-71
2022/01/31 06:40:55;;;;;;;10.82;1.40;;;4.60;99.90;;;;;;5072501;28;20044;-72
2022/01/31 06:43:21;;;;;;;13.23;1.90;;;4.70;99.90;;;;;;5073972;28;20048;-73
2022/01/31 06:45:47;;;;;;;14.50;2.17;;;4.70;99.90;;;;;;5057334;28;20040;-73
2022/01/31 06:48:13;;;;;;;19.88;2.17;;;4.70;99.90;;;;;;5073794;28;20044;-73
2022/01/31 06:50:39;;;;;;;14.35;2.05;;;4.70;99.90;;;;;;5073570;28;20040;-72
2022/01/31 06:53:05;;;;;;;15.05;2.03;;;4.70;99.90;;;;;;5073489;28;20036;-72
2022/01/31 06:55:34;;;;;;;15.75;2.17;;;4.70;99.90;;;;;;5056778;28;20044;-74
2022/01/31 06:58:00;;;;;;;18.80;2.17;;;4.80;99.90;;;;;;5070568;28;20044;-74
2022/01/31 07:00:25;;;;;;;15.35;2.25;;;4.70;99.90;;;;;;5036780;28;20494;-73
2022/01/31 07:02:51;;;;;;;20.70;2.20;;;4.80;99.90;;;;;;5053280;28;20048;-72
2022/01/31 07:05:18;;;;;;;14.70;1.80;;;4.80;99.90;;;;;;5053422;28;20059;-70
2022/01/31 07:07:44;;;;;;;17.77;2.65;;;4.80;99.90;;;;;;5053095;28;20041;-72
2022/01/31 07:10:11;;;;;;;15.52;2.05;;;4.90;99.90;;;;;;5053233;28;20467;-73
2022/01/31 07:12:39;;;;;;;16.90;2.78;;;4.90;99.90;;;;;;5051761;28;20039;-72
2022/01/31 07:15:08;;;;;;;17.67;2.00;;;4.90;99.90;;;;;;5053386;28;20071;-72
2022/01/31 07:17:35;;;;;;;14.32;1.55;;;5.00;99.90;;;;;;5052780;28;20383;-71
2022/01/31 07:20:06;;;;;;;7.05;1.75;;;5.00;99.90;;;;;;5053243;28;20094;-71
2022/01/31 07:22:37;;;;;;;9.73;1.70;;;5.00;99.90;;;;;;5052527;28;20037;-71
2022/01/31 07:25:07;;;;;;;8.30;1.40;;;5.00;99.90;;;;;;5053059;28;20120;-72
2022/01/31 07:27:34;;;;;;;6.47;1.17;;;5.00;99.90;;;;;;5066051;28;20044;-72
2022/01/31 07:30:00;;;;;;;4.18;1.17;;;4.90;99.90;;;;;;5073027;28;20127;-73
2022/01/31 07:32:28;;;;;;;8.55;1.60;;;5.00;99.90;;;;;;5072703;28;20094;-71
2022/01/31 07:34:55;;;;;;;7.65;1.10;;;5.00;99.90;;;;;;5072714;28;20131;-71
2022/01/31 07:37:22;;;;;;;8.18;1.40;;;5.00;99.90;;;;;;5072601;28;20062;-73
2022/01/31 07:39:48;;;;;;;9.80;1.38;;;4.90;99.90;;;;;;5056652;28;20051;-72
2022/01/31 07:42:14;;;;;;;12.50;1.33;;;4.90;99.90;;;;;;5040796;28;20033;-72
2022/01/31 07:44:40;;;;;;;10.68;1.55;;;4.90;99.90;;;;;;5072954;28;20036;-73
2022/01/31 07:47:06;;;;;;;11.20;1.40;;;4.80;99.90;;;;;;5072842;28;20037;-73
2022/01/31 07:49:32;;;;;;;13.77;1.65;;;4.90;99.90;;;;;;5055409;28;20131;-72
2022/01/31 07:51:59;;;;;;;12.05;1.75;;;4.80;99.90;;;;;;5055903;28;20040;-73
2022/01/31 07:54:25;;;;;;;12.15;2.65;;;4.80;99.90;;;;;;5055737;28;20040;-72
2022/01/31 07:56:51;;;;;;;14.02;2.55;;;4.80;99.90;;;;;;5070944;28;20044;-72
2022/01/31 07:59:17;;;;;;;12.85;2.22;;;4.80;99.90;;;;;;5055447;28;20047;-71
2022/01/31 08:01:43;;;;;;;13.25;1.90;;;4.90;99.90;;;;;;5072207;28;20076;-72
2022/01/31 08:04:10;;;;;;;7.88;1.73;;;4.80;99.90;;;;;;5071961;28;20091;-73
2022/01/31 08:06:36;;;;;;;11.90;1.40;;;4.90;99.90;;;;;;5073126;28;20084;-73
2022/01/31 08:09:03;;;;;;;13.40;2.15;;;4.90;99.90;;;;;;5071951;28;20081;-73
2022/01/31 08:11:34;;;;;;;12.32;1.80;;;4.90;99.90;;;;;;5054054;28;20043;-72
2022/01/31 08:14:05;;;;;;;9.13;1.65;;;4.90;99.90;;;;;;5072217;28;20071;-72
2022/01/31 08:16:32;;;;;;;14.02;1.67;;;5.00;99.90;;;;;;5071943;28;20040;-72
2022/01/31 08:18:58;;;;;;;14.95;2.10;;;5.00;99.90;;;;;;5072049;28;20056;-72
2022/01/31 08:21:24;;;;;;;18.08;2.05;;;5.00;99.90;;;;;;5072368;28;20044;-71
2022/01/31 08:23:50;;;;;;;11.25;2.58;;;5.00;99.90;;;;;;5072432;28;20058;-72
2022/01/31 08:26:17;;;;;;;11.40;2.10;;;5.10;99.90;;;;;;5069500;28;20044;-72
2022/01/31 08:28:54;;;;;;;18.30;2.83;;;5.10;99.90;;;;;;5056060;28;20037;-71
2022/01/31 08:31:29;;;;;;;15.32;2.22;;;5.10;99.90;;;;;;5062597;28;20037;-72
2022/01/31 08:36:23;;;;;;;13.88;2.30;;;5.20;99.90;;;;;;5051429;28;20077;-72
2022/01/31 08:38:50;;;;;;;13.55;2.38;;;5.20;99.90;;;;;;5051853;28;20497;-72
2022/01/31 08:41:16;;;;;;;16.25;2.45;;;5.30;99.90;;;;;;5050856;28;20084;-72
2022/01/31 08:43:43;;;;;;;15.43;2.85;;;5.30;99.90;;;;;;5035099;28;20131;-71
2022/01/31 08:46:10;;;;;;;14.23;2.42;;;5.30;99.90;;;;;;5051812;28;20352;-72
2022/01/31 08:48:37;;;;;;;12.40;2.67;;;5.30;99.90;;;;;;5051809;28;20044;-72
2022/01/31 08:51:05;;;;;;;10.27;1.73;;;5.30;99.90;;;;;;5051537;28;20507;-71
2022/01/31 08:53:32;;;;;;;16.50;2.17;;;5.40;99.90;;;;;;5051534;28;20487;-73
2022/01/31 08:56:05;;;;;;;15.00;2.08;;;5.40;99.90;;;;;;5035249;28;20041;-72
2022/01/31 08:58:32;;;;;;;13.63;2.45;;;5.50;99.90;;;;;;5051368;28;20502;-72
2022/01/31 09:01:00;;;;;;;19.05;2.55;;;5.50;99.90;;;;;;5051663;28;20044;-74
2022/01/31 09:03:42;;;;;;;22.52;2.70;;;5.60;99.90;;;;;;5036907;28;20072;-74
2022/01/31 09:06:09;;;;;;;25.45;3.35;;;5.60;99.90;;;;;;5071649;28;20394;-73
2022/01/31 09:08:36;;;;;;;21.40;2.92;;;5.60;99.90;;;;;;5054814;28;20141;-73
2022/01/31 09:11:03;;;;;;;24.23;2.47;;;5.70;99.90;;;;;;5070104;28;20044;-72
2022/01/31 09:13:28;;;;;;;20.13;2.85;;;5.70;99.90;;;;;;5054755;28;20123;-72
2022/01/31 09:15:54;;;;;;;16.55;2.20;;;5.70;99.90;;;;;;5071684;28;20127;-72
2022/01/31 09:18:20;;;;;;;14.50;2.17;;;5.80;99.90;;;;;;5048709;28;20046;-73
2022/01/31 09:20:46;;;;;;;13.55;1.88;;;5.80;99.90;;;;;;5035022;28;20037;-72
2022/01/31 09:23:11;;;;;;;11.95;2.30;;;5.90;99.90;;;;;;5044539;28;20068;-71
2022/01/31 09:25:43;;;;;;;13.25;3.95;;;5.90;99.90;;;;;;5070967;28;20044;-72
2022/01/31 09:28:10;;;;;;;12.00;1.80;;;6.00;99.90;;;;;;5068566;28;20048;-71
2022/01/31 09:30:36;;;;;;;11.15;1.90;;;6.00;99.90;;;;;;5051262;28;20041;-72
2022/01/31 09:33:02;;;;;;;16.00;3.45;;;6.00;99.90;;;;;;5051481;28;20044;-71
2022/01/31 09:35:28;;;;;;;20.73;8.60;;;6.00;99.90;;;;;;5051215;28;20045;-72
2022/01/31 09:37:54;;;;;;;13.50;3.35;;;6.10;99.90;;;;;;5059575;28;20044;-72
2022/01/31 09:40:22;;;;;;;13.38;3.08;;;6.10;99.90;;;;;;5070877;28;20051;-71
2022/01/31 09:43:26;;;;;;;16.45;4.03;;;6.10;99.90;;;;;;5054356;28;20131;-72
2022/01/31 09:46:02;;;;;;;11.15;2.88;;;6.10;99.90;;;;;;5071329;28;20052;-71
2022/01/31 09:48:35;;;;;;;13.90;4.60;;;6.20;99.90;;;;;;5074530;28;20432;-71
2022/01/31 09:51:09;;;;;;;9.45;4.15;;;6.20;99.90;;;;;;5058040;28;20208;-72
2022/01/31 09:53:44;;;;;;;12.57;1.90;;;6.30;99.90;;;;;;5074600;28;20041;-72
2022/01/31 09:56:13;;;;;;;19.73;3.90;;;6.40;99.90;;;;;;5074975;28;20055;-71
2022/01/31 09:58:40;;;;;;;10.85;2.33;;;6.40;99.90;;;;;;5058134;28;20036;-72
2022/01/31 10:01:11;;;;;;;10.10;2.08;;;6.40;99.90;;;;;;5057641;28;20429;-71
2022/01/31 10:03:59;;;;;;;7.88;2.88;;;6.50;99.90;;;;;;5072261;28;20052;-71
2022/01/31 10:06:36;;;;;;;11.52;1.67;;;6.50;99.90;;;;;;5074735;28;20037;-72
2022/01/31 10:09:17;;;;;;;11.27;1.65;;;6.60;99.90;;;;;;5074511;28;20033;-71
2022/01/31 10:11:51;;;;;;;13.05;2.30;;;6.60;99.90;;;;;;5073235;28;20051;-72
2022/01/31 10:17:21;;;;;;;11.73;2.20;;;6.70;99.90;;;;;;5054368;28;20059;-72
2022/01/31 10:19:47;;;;;;;14.45;4.75;;;6.70;99.90;;;;;;5053983;28;20467;-72
2022/01/31 10:22:14;;;;;;;12.32;2.90;;;6.80;99.90;;;;;;5037725;28;20048;-71
2022/01/31 10:24:46;;;;;;;34.78;14.13;;;6.90;99.90;;;;;;5054323;28;20047;-71
2022/01/31 10:27:29;;;;;;;15.95;4.85;;;6.90;99.90;;;;;;5054174;28;20037;-72
2022/01/31 10:30:11;;;;;;;18.80;5.63;;;6.90;99.90;;;;;;5037459;28;20068;-72
2022/01/31 10:32:40;;;;;;;22.90;6.93;;;6.90;99.90;;;;;;5053828;28;20049;-71
2022/01/31 10:35:12;;;;;;;14.77;4.60;;;6.80;99.90;;;;;;5053853;28;20037;-73
2022/01/31 10:37:40;;;;;;;10.00;1.70;;;6.70;99.90;;;;;;5053838;28;20090;-72
2022/01/31 10:54:26;;;;;;;11.18;2.30;;;7.00;99.90;;;;;;5073747;28;20546;-72
2022/01/31 10:57:07;;;;;;;9.30;1.45;;;7.00;99.90;;;;;;5073459;28;20048;-72
2022/01/31 10:59:38;;;;;;;8.75;2.17;;;7.10;99.90;;;;;;5056058;28;20493;-71
2022/01/31 11:02:06;;;;;;;9.93;2.25;;;7.10;99.90;;;;;;5056562;28;20089;-72
2022/01/31 11:04:33;;;;;;;9.98;4.10;;;7.20;99.90;;;;;;5072874;28;20055;-72
2022/01/31 11:07:08;;;;;;;12.93;2.67;;;7.30;99.90;;;;;;5069974;28;20052;-71
2022/01/31 11:09:34;;;;;;;7.63;2.00;;;7.40;99.90;;;;;;5055377;28;20085;-77
2022/01/31 11:12:00;;;;;;;14.57;4.38;;;7.40;99.90;;;;;;5054971;28;20036;-72
2022/01/31 11:14:26;;;;;;;8.25;2.53;;;7.60;99.90;;;;;;5071660;28;20378;-72
2022/01/31 11:16:55;;;;;;;9.90;1.80;;;7.70;99.90;;;;;;5046002;28;20068;-73
2022/01/31 11:19:31;;;;;;;11.25;1.52;;;7.80;99.90;;;;;;5069877;28;20047;-72
2022/01/31 11:22:01;;;;;;;11.45;1.80;;;8.10;99.90;;;;;;5056659;28;20144;-71
2022/01/31 11:24:31;;;;;;;10.02;2.00;;;8.30;99.90;;;;;;5072091;28;20119;-71
2022/01/31 11:27:09;;;;;;;11.55;1.92;;;8.40;99.90;;;;;;5070967;28;20413;-71
2022/01/31 11:29:37;;;;;;;7.65;1.20;;;8.50;99.90;;;;;;5072837;28;20226;-71
2022/01/31 11:32:05;;;;;;;9.13;1.50;;;8.50;99.90;;;;;;5072840;28;20131;-71
2022/01/31 11:34:31;;;;;;;28.92;2.17;;;8.70;99.90;;;;;;5047400;28;20040;-72
2022/01/31 11:36:57;;;;;;;12.20;1.77;;;8.80;99.90;;;;;;5052582;28;20041;-72
2022/01/31 11:39:23;;;;;;;9.60;1.67;;;8.90;99.90;;;;;;5053117;28;20044;-72
2022/01/31 11:41:58;;;;;;;14.27;1.67;;;9.10;99.90;;;;;;5035238;28;20060;-72
2022/01/31 11:44:41;;;;;;;11.30;1.63;;;9.00;99.90;;;;;;5056013;28;20563;-73
2022/01/31 11:47:08;;;;;;;7.75;1.35;;;9.20;99.90;;;;;;5052707;28;20032;-72
2022/01/31 11:49:46;;;;;;;14.32;2.00;;;9.50;99.90;;;;;;5035571;28;20364;-72
2022/01/31 11:52:14;;;;;;;13.20;3.10;;;9.40;99.90;;;;;;5052271;28;20033;-71
2022/01/31 11:54:56;;;;;;;17.35;3.30;;;9.40;99.90;;;;;;5052957;28;20041;-71
2022/01/31 11:57:27;;;;;;;13.10;2.05;;;9.60;99.90;;;;;;5052443;28;20054;-72
2022/01/31 11:59:56;;;;;;;15.82;2.33;;;9.60;99.90;;;;;;5036174;28;20068;-72
2022/01/31 12:02:24;;;;;;;14.07;2.58;;;9.60;99.90;;;;;;5055534;28;20044;-72
2022/01/31 12:04:52;;;;;;;12.90;2.65;;;9.50;99.90;;;;;;5060606;28;20056;-72
2022/01/31 12:07:40;;;;;;;11.65;2.40;;;9.30;99.90;;;;;;5052107;28;20483;-72
2022/01/31 12:10:33;;;;;;;19.55;2.65;;;9.00;99.90;;;;;;5051116;28;20041;-73
2022/01/31 12:15:42;;;;;;;15.50;2.30;;;8.80;99.90;;;;;;5052038;28;20488;-73
2022/01/31 12:24:06;;;;;;;14.45;1.80;;;8.80;99.90;;;;;;5061666;28;20057;-71
2022/01/31 12:26:32;;;;;;;16.02;2.20;;;8.80;99.90;;;;;;5054008;28;20044;-72
2022/01/31 12:29:00;;;;;;;14.48;2.00;;;8.80;99.90;;;;;;5060019;28;20045;-72
2022/01/31 12:31:34;;;;;;;13.10;2.05;;;8.80;99.90;;;;;;5050436;28;20036;-72
2022/01/31 12:34:09;;;;;;;17.33;2.30;;;8.90;99.90;;;;;;5033968;28;20036;-72
2022/01/31 12:36:34;;;;;;;11.77;1.88;;;8.80;99.90;;;;;;5050501;28;20120;-72
2022/01/31 12:39:02;;;;;;;16.33;1.73;;;8.70;99.90;;;;;;5051254;28;20182;-72
2022/01/31 12:41:33;;;;;;;13.48;1.63;;;8.70;99.90;;;;;;5049298;28;20072;-71
2022/01/31 12:44:32;;;;;;;9.45;1.45;;;8.60;99.90;;;;;;5054969;28;20084;-73
2022/01/31 12:47:16;;;;;;;12.82;2.60;;;8.50;99.90;;;;;;5066905;28;20041;-71
2022/01/31 12:49:42;;;;;;;11.98;1.27;;;8.40;99.90;;;;;;5050760;28;20461;-73
2022/01/31 12:52:10;;;;;;;9.30;1.48;;;8.30;99.90;;;;;;5034041;28;20053;-72
2022/01/31 12:54:37;;;;;;;10.95;1.48;;;8.30;99.90;;;;;;5050266;28;20095;-71
2022/01/31 12:57:12;;;;;;;15.57;2.33;;;8.20;99.90;;;;;;5033651;28;20542;-71
2022/01/31 12:59:46;;;;;;;11.90;1.50;;;8.20;99.90;;;;;;5050658;28;20044;-72
2022/01/31 13:02:12;;;;;;;11.93;1.88;;;8.10;99.90;;;;;;5034326;28;20044;-72
2022/01/31 13:04:38;;;;;;;8.52;1.45;;;8.10;99.90;;;;;;5058021;28;20049;-72
2022/01/31 13:07:08;;;;;;;8.73;1.48;;;8.10;99.90;;;;;;5070308;28;20119;-73
2022/01/31 13:09:39;;;;;;;9.38;1.73;;;8.10;99.90;;;;;;5052189;28;20045;-72
2022/01/31 13:12:10;;;;;;;9.23;1.80;;;8.20;99.90;;;;;;5038095;28;20033;-72
2022/01/31 13:14:39;;;;;;;7.75;1.90;;;8.10;99.90;;;;;;5070800;28;20053;-72
2022/01/31 13:17:09;;;;;;;10.00;1.60;;;8.10;99.90;;;;;;5070459;28;20101;-72
2022/01/31 13:19:42;;;;;;;11.70;2.83;;;8.10;99.90;;;;;;5070721;28;20037;-72
2022/01/31 13:22:26;;;;;;;10.88;1.65;;;8.10;99.90;;;;;;5044138;28;20063;-73